createdAt,value
2022-12-18T00:01:00.724Z,5.32
2022-12-18T00:03:28.120Z,4.22
2022-12-18T00:05:59.022Z,3.43
2022-12-18T00:08:25.833Z,4.38
2022-12-18T00:10:52.695Z,6.10
2022-12-18T00:13:21.089Z,6.38
2022-12-18T00:15:47.662Z,5.53
2022-12-18T00:18:18.937Z,5.20
2022-12-18T00:20:47.644Z,6.22
2022-12-18T00:23:14.137Z,4.68
2022-12-18T00:25:41.489Z,4.53
2022-12-18T00:28:08.032Z,7.15
2022-12-18T00:30:35.985Z,6.18
2022-12-18T00:33:04.805Z,5.03
2022-12-18T00:35:32.644Z,5.23
2022-12-18T00:37:59.216Z,4.47
2022-12-18T00:40:25.696Z,5.13
2022-12-18T00:42:53.673Z,5.63
2022-12-18T00:45:20.166Z,6.23
2022-12-18T00:47:48.135Z,5.60
2022-12-18T00:50:14.772Z,3.58
2022-12-18T00:52:41.665Z,3.65
2022-12-18T00:55:08.445Z,5.50
2022-12-18T00:57:36.317Z,4.57
2022-12-18T01:00:03.024Z,4.28
2022-12-18T01:02:30.656Z,4.72
2022-12-18T01:04:58.692Z,5.10
2022-12-18T01:07:29.383Z,5.40
2022-12-18T01:09:55.856Z,5.85
2022-12-18T01:12:24.215Z,5.60
2022-12-18T01:14:50.728Z,4.83
2022-12-18T01:17:17.811Z,4.47
2022-12-18T01:19:46.857Z,9.52
2022-12-18T01:22:19.052Z,5.55
2022-12-18T01:24:45.846Z,5.00
2022-12-18T01:27:12.827Z,5.85
2022-12-18T01:29:42.771Z,7.72
2022-12-18T01:32:12.627Z,3.83
2022-12-18T01:34:39.596Z,5.35
2022-12-18T01:37:06.372Z,6.18
2022-12-18T01:39:37.424Z,6.07
2022-12-18T01:42:16.765Z,9.47
2022-12-18T01:45:02.559Z,4.50
2022-12-18T01:47:34.095Z,5.25
2022-12-18T01:50:03.182Z,5.70
2022-12-18T01:52:35.650Z,4.83
2022-12-18T01:55:08.498Z,7.25
2022-12-18T01:57:36.349Z,5.90
2022-12-18T02:00:09.095Z,6.13
2022-12-18T02:02:37.194Z,4.67
2022-12-18T02:05:04.630Z,7.10
2022-12-18T02:07:44.924Z,2.88
2022-12-18T02:10:20.876Z,4.82
2022-12-18T02:12:57.629Z,5.37
2022-12-18T02:15:32.313Z,6.43
2022-12-18T02:18:10.114Z,6.53
2022-12-18T02:20:55.648Z,5.55
2022-12-18T02:23:41.795Z,5.33
2022-12-18T02:26:34.742Z,4.35
2022-12-18T02:29:06.046Z,6.30
2022-12-18T02:34:10.058Z,5.27
2022-12-18T02:36:41.079Z,3.65
2022-12-18T02:39:14.815Z,4.15
2022-12-18T02:41:44.081Z,6.60
2022-12-18T02:44:12.381Z,5.00
2022-12-18T02:46:41.772Z,6.25
2022-12-18T02:49:20.436Z,4.93
2022-12-18T02:51:54.125Z,4.05
2022-12-18T02:54:35.671Z,6.40
2022-12-18T02:57:10.754Z,4.00
2022-12-18T02:59:46.442Z,4.85
2022-12-18T03:02:22.530Z,9.82
2022-12-18T03:04:57.823Z,3.30
2022-12-18T03:07:29.175Z,5.75
2022-12-18T03:09:57.335Z,4.22
2022-12-18T03:12:32.184Z,4.25
2022-12-18T03:15:05.362Z,4.77
2022-12-18T03:17:35.065Z,3.35
2022-12-18T03:20:10.703Z,7.03
2022-12-18T03:22:41.157Z,5.90
2022-12-18T03:25:12.544Z,5.60
2022-12-18T03:27:47.215Z,5.18
2022-12-18T03:30:16.707Z,5.78
2022-12-18T03:32:51.045Z,4.75
2022-12-18T03:35:27.463Z,6.73
2022-12-18T03:37:57.019Z,5.90
2022-12-18T03:40:31.198Z,6.50
2022-12-18T03:43:11.402Z,3.95
2022-12-18T03:45:41.839Z,4.57
2022-12-18T03:48:14.005Z,2.85
2022-12-18T03:50:49.642Z,3.95
2022-12-18T03:53:26.956Z,4.32
2022-12-18T03:55:59.299Z,3.93
2022-12-18T03:58:30.870Z,6.93
2022-12-18T04:01:02.633Z,3.63
2022-12-18T04:03:37.888Z,5.25
2022-12-18T04:06:06.647Z,3.83
2022-12-18T04:08:35.054Z,4.20
2022-12-18T04:11:02.276Z,3.80
2022-12-18T04:13:34.997Z,6.15
2022-12-18T04:16:02.396Z,3.47
2022-12-18T04:18:28.965Z,4.90
2022-12-18T04:20:56.771Z,4.63
2022-12-18T04:23:23.378Z,3.17
2022-12-18T04:25:50.258Z,3.07
2022-12-18T04:28:18.830Z,3.00
2022-12-18T04:30:50.120Z,4.95
2022-12-18T04:33:19.840Z,2.90
2022-12-18T04:35:46.554Z,4.37
2022-12-18T04:38:13.502Z,3.65
2022-12-18T04:40:40.101Z,5.65
2022-12-18T04:43:11.985Z,2.78
2022-12-18T04:45:39.386Z,3.70
2022-12-18T04:48:09.477Z,2.63
2022-12-18T04:50:36.598Z,3.97
2022-12-18T04:53:05.045Z,2.25
2022-12-18T04:55:31.550Z,2.40
2022-12-18T04:57:58.029Z,2.00
2022-12-18T05:00:28.705Z,3.67
2022-12-18T05:02:55.393Z,3.55
2022-12-18T05:05:23.543Z,3.50
2022-12-18T05:07:53.899Z,5.07
2022-12-18T05:10:20.605Z,3.30
2022-12-18T05:12:47.518Z,3.03
2022-12-18T05:15:18.110Z,3.27
2022-12-18T05:17:44.966Z,4.95
2022-12-18T05:20:16.012Z,4.10
2022-12-18T05:22:46.254Z,4.25
2022-12-18T05:25:16.637Z,3.73
2022-12-18T05:27:45.031Z,3.55
2022-12-18T05:30:13.042Z,3.00
2022-12-18T05:32:39.917Z,1.90
2022-12-18T05:35:09.621Z,2.37
2022-12-18T05:37:42.714Z,2.17
2022-12-18T05:40:12.887Z,2.35
2022-12-18T05:42:39.532Z,3.38
2022-12-18T05:45:08.119Z,2.13
2022-12-18T05:47:35.839Z,2.72
2022-12-18T05:50:05.286Z,2.65
2022-12-18T05:52:31.907Z,2.85
2022-12-18T05:55:00.696Z,2.77
2022-12-18T05:57:30.434Z,5.30
2022-12-18T05:59:57.000Z,3.55
2022-12-18T06:02:26.112Z,4.40
2022-12-18T06:04:52.806Z,4.95
2022-12-18T06:07:22.331Z,1.92
2022-12-18T06:09:48.754Z,2.97
2022-12-18T06:12:16.983Z,3.97
2022-12-18T06:14:45.125Z,4.38
2022-12-18T06:17:11.746Z,6.63
2022-12-18T06:19:39.276Z,4.28
2022-12-18T06:24:52.619Z,4.13
2022-12-18T06:27:19.669Z,2.58
2022-12-18T06:29:47.591Z,5.30
2022-12-18T06:32:15.791Z,5.17
2022-12-18T06:34:59.233Z,6.07
2022-12-18T06:37:25.966Z,3.50
2022-12-18T06:39:55.095Z,2.97
2022-12-18T06:42:24.924Z,3.30
2022-12-18T06:44:52.821Z,2.65
2022-12-18T06:47:19.684Z,2.65
2022-12-18T06:49:46.362Z,4.60
2022-12-18T06:52:19.114Z,3.57
2022-12-18T06:54:45.769Z,2.50
2022-12-18T06:57:12.517Z,2.92
2022-12-18T06:59:39.141Z,5.22
2022-12-18T07:02:07.517Z,2.97
2022-12-18T07:04:34.086Z,2.58
2022-12-18T07:07:00.606Z,3.17
2022-12-18T07:09:29.848Z,2.58
2022-12-18T07:11:56.320Z,6.17
2022-12-18T07:14:23.039Z,3.08
2022-12-18T07:16:49.613Z,5.03
2022-12-18T07:19:17.469Z,3.30
2022-12-18T07:21:44.089Z,3.07
2022-12-18T07:24:10.591Z,4.47
2022-12-18T07:26:37.105Z,2.83
2022-12-18T07:29:04.471Z,4.10
2022-12-18T07:31:31.130Z,5.77
2022-12-18T07:33:59.124Z,5.60
2022-12-18T07:36:28.357Z,4.20
2022-12-18T07:38:55.105Z,4.57
2022-12-18T07:41:21.894Z,3.37
2022-12-18T07:43:48.872Z,3.35
2022-12-18T07:46:16.626Z,4.85
2022-12-18T07:48:45.545Z,3.90
2022-12-18T07:51:16.812Z,3.83
2022-12-18T07:53:45.841Z,4.80
2022-12-18T07:56:30.968Z,5.65
2022-12-18T07:58:59.750Z,7.55
2022-12-18T08:01:26.902Z,5.77
2022-12-18T08:03:53.963Z,13.10
2022-12-18T08:06:23.887Z,3.10
2022-12-18T08:08:55.831Z,4.80
2022-12-18T08:11:27.260Z,6.50
2022-12-18T08:13:58.559Z,4.70
2022-12-18T08:16:25.847Z,3.92
2022-12-18T08:18:54.176Z,5.20
2022-12-18T08:21:23.216Z,4.07
2022-12-18T08:23:51.291Z,4.30
2022-12-18T08:26:21.007Z,3.72
2022-12-18T08:28:50.835Z,3.90
2022-12-18T08:31:17.486Z,3.33
2022-12-18T08:33:46.414Z,3.55
2022-12-18T08:36:13.511Z,5.90
2022-12-18T08:38:40.040Z,4.55
2022-12-18T08:41:09.652Z,4.38
2022-12-18T08:43:38.175Z,6.47
2022-12-18T08:46:05.523Z,6.05
2022-12-18T08:48:32.043Z,4.90
2022-12-18T08:50:59.791Z,4.18
2022-12-18T08:53:29.248Z,3.90
2022-12-18T08:55:59.280Z,8.13
2022-12-18T08:58:25.815Z,5.43
2022-12-18T09:01:01.114Z,3.53
2022-12-18T09:03:27.655Z,6.75
2022-12-18T09:05:54.365Z,4.18
2022-12-18T09:08:20.924Z,6.38
2022-12-18T09:10:49.864Z,3.75
2022-12-18T09:13:17.493Z,5.97
2022-12-18T09:15:44.850Z,2.73
2022-12-18T09:18:13.669Z,3.13
2022-12-18T09:20:40.235Z,4.63
2022-12-18T09:23:07.579Z,5.55
2022-12-18T09:25:34.634Z,4.13
2022-12-18T09:28:01.392Z,3.88
2022-12-18T09:30:28.503Z,4.28
2022-12-18T09:32:55.195Z,4.53
2022-12-18T09:35:23.039Z,6.13
2022-12-18T09:37:50.532Z,3.43
2022-12-18T09:40:20.423Z,4.30
2022-12-18T09:42:52.958Z,10.95
2022-12-18T09:45:19.990Z,4.80
2022-12-18T09:47:49.284Z,5.03
2022-12-18T09:50:26.564Z,7.23
2022-12-18T09:52:57.898Z,4.13
2022-12-18T09:55:35.168Z,5.35
2022-12-18T09:58:08.652Z,10.38
2022-12-18T10:00:35.701Z,5.70
2022-12-18T10:03:09.606Z,6.05
2022-12-18T10:05:44.021Z,4.07
2022-12-18T10:08:16.924Z,11.80
2022-12-18T10:10:49.583Z,5.35
2022-12-18T10:13:25.633Z,5.90
2022-12-18T10:16:03.406Z,7.43
2022-12-18T10:18:45.430Z,6.05
2022-12-18T10:21:20.249Z,4.30
2022-12-18T10:23:58.690Z,5.38
2022-12-18T10:26:26.052Z,5.50
2022-12-18T10:28:54.345Z,5.13
2022-12-18T10:31:24.964Z,4.90
2022-12-18T10:33:53.620Z,4.70
2022-12-18T10:36:23.857Z,6.97
2022-12-18T10:38:50.947Z,4.63
2022-12-18T10:41:27.517Z,4.28
2022-12-18T10:44:13.395Z,5.15
2022-12-18T10:46:40.144Z,4.95
2022-12-18T10:49:19.641Z,5.78
2022-12-18T10:51:48.060Z,4.30
2022-12-18T10:54:17.096Z,4.45
2022-12-18T10:56:44.463Z,4.20
2022-12-18T10:59:14.411Z,4.95
2022-12-18T11:01:50.930Z,8.50
2022-12-18T11:04:21.343Z,6.00
2022-12-18T11:06:57.715Z,5.05
2022-12-18T11:09:28.335Z,6.30
2022-12-18T11:11:57.365Z,7.03
2022-12-18T11:14:26.074Z,6.37
2022-12-18T11:19:42.538Z,5.63
2022-12-18T11:22:21.652Z,8.50
2022-12-18T11:25:29.521Z,6.82
2022-12-18T11:27:48.194Z,6.10
2022-12-18T11:30:24.334Z,6.15
2022-12-18T11:32:54.021Z,5.43
2022-12-18T11:35:26.288Z,5.47
2022-12-18T11:38:03.940Z,5.32
2022-12-18T11:40:40.855Z,4.50
2022-12-18T11:43:12.840Z,4.70
2022-12-18T11:45:46.943Z,4.65
2022-12-18T11:48:19.389Z,5.68
2022-12-18T11:50:50.813Z,6.55
2022-12-18T11:53:19.144Z,4.30
2022-12-18T12:26:46.518Z,7.38
2022-12-18T12:29:31.252Z,6.13
2022-12-18T12:32:23.491Z,5.85
2022-12-18T12:35:02.587Z,6.57
2022-12-18T12:37:47.234Z,4.67
2022-12-18T12:40:51.193Z,7.30
2022-12-18T12:43:36.924Z,9.05
2022-12-18T12:46:07.883Z,9.07
2022-12-18T12:48:44.243Z,6.45
2022-12-18T12:51:35.601Z,7.33
2022-12-18T12:54:05.227Z,6.30
2022-12-18T12:56:41.008Z,7.70
2022-12-18T12:59:20.274Z,13.63
2022-12-18T13:01:58.511Z,8.27
2022-12-18T13:04:36.334Z,8.87
2022-12-18T13:07:13.312Z,6.22
2022-12-18T13:10:23.499Z,9.18
2022-12-18T13:12:55.980Z,8.73
2022-12-18T13:15:25.131Z,8.27
2022-12-18T13:18:05.569Z,7.97
2022-12-18T13:20:38.343Z,10.32
2022-12-18T13:23:21.240Z,16.25
2022-12-18T13:25:51.058Z,9.23
2022-12-18T13:28:21.522Z,10.60
2022-12-18T13:30:58.640Z,8.52
2022-12-18T13:36:30.547Z,9.82
2022-12-18T13:39:35.316Z,8.07
2022-12-18T13:42:38.141Z,12.40
2022-12-18T13:45:47.339Z,9.85
2022-12-18T13:48:19.128Z,12.00
2022-12-18T13:51:10.828Z,9.57
2022-12-18T13:53:43.204Z,10.37
2022-12-18T13:56:10.229Z,11.10
2022-12-18T13:58:45.811Z,8.65
2022-12-18T14:01:23.345Z,10.27
2022-12-18T14:04:10.306Z,11.13
2022-12-18T14:06:37.400Z,12.10
2022-12-18T14:09:04.471Z,10.95
2022-12-18T14:11:31.638Z,10.70
2022-12-18T14:14:00.139Z,10.82
2022-12-18T14:16:28.560Z,10.02
2022-12-18T14:19:01.934Z,17.70
2022-12-18T14:21:34.262Z,9.10
2022-12-18T14:24:13.905Z,9.93
2022-12-18T14:26:41.492Z,6.43
2022-12-18T14:29:27.106Z,15.47
2022-12-18T14:32:13.321Z,9.95
2022-12-18T14:34:43.766Z,11.32
2022-12-18T14:37:11.751Z,11.50
2022-12-18T14:39:38.346Z,13.07
2022-12-18T14:42:05.406Z,10.20
2022-12-18T14:48:23.426Z,9.85
2022-12-18T14:50:59.895Z,13.88
2022-12-18T14:53:35.023Z,11.68
2022-12-18T14:56:02.288Z,13.75
2022-12-18T14:58:29.121Z,11.35
2022-12-18T15:00:56.160Z,13.60
2022-12-18T15:03:24.818Z,11.50
2022-12-18T15:05:52.733Z,11.07
2022-12-18T15:08:35.821Z,9.80
2022-12-18T15:11:02.928Z,11.52
2022-12-18T15:17:20.403Z,7.50
2022-12-18T15:20:20.807Z,13.27
2022-12-18T15:23:40.207Z,10.27
2022-12-18T15:26:14.858Z,14.25
2022-12-18T15:29:23.882Z,13.30
2022-12-18T15:35:31.854Z,9.95
2022-12-18T15:38:16.026Z,11.07
2022-12-18T15:41:01.001Z,12.80
2022-12-18T15:46:37.245Z,11.63
2022-12-18T15:49:35.638Z,15.05
2022-12-18T15:52:04.300Z,16.55
2022-12-18T15:54:31.128Z,14.07
2022-12-18T15:56:57.708Z,14.32
2022-12-18T15:59:27.925Z,15.52
2022-12-18T16:01:54.581Z,12.75
2022-12-18T16:04:22.609Z,13.50
2022-12-18T16:09:35.839Z,13.10
2022-12-18T16:12:02.504Z,14.20
2022-12-18T16:14:34.141Z,16.02
2022-12-18T16:17:02.760Z,13.02
2022-12-18T16:19:29.964Z,17.33
2022-12-18T16:21:59.026Z,14.57
2022-12-18T16:24:27.971Z,14.77
2022-12-18T16:26:55.287Z,13.13
2022-12-18T16:29:25.099Z,17.55
2022-12-18T16:31:53.340Z,15.65
2022-12-18T16:34:26.821Z,17.45
2022-12-18T16:36:58.982Z,11.67
2022-12-18T16:39:30.010Z,17.67
2022-12-18T16:41:56.724Z,16.42
2022-12-18T16:44:24.724Z,16.95
2022-12-18T16:46:52.710Z,13.60
2022-12-18T16:49:20.229Z,9.75
2022-12-18T16:51:47.858Z,10.90
2022-12-18T16:54:18.870Z,16.50
2022-12-18T16:56:46.413Z,14.57
2022-12-18T16:59:13.278Z,13.85
2022-12-18T17:01:39.924Z,15.00
2022-12-18T17:04:09.018Z,10.20
2022-12-18T17:06:47.534Z,14.35
2022-12-18T17:09:15.442Z,16.98
2022-12-18T17:11:42.841Z,22.23
2022-12-18T17:14:11.045Z,17.63
2022-12-18T17:16:38.211Z,21.35
2022-12-18T17:19:12.237Z,16.20
2022-12-18T17:21:42.625Z,17.77
2022-12-18T17:24:09.715Z,14.63
2022-12-18T17:26:36.904Z,18.17
2022-12-18T17:29:05.245Z,15.10
2022-12-18T17:31:32.215Z,17.33
2022-12-18T17:34:06.913Z,20.88
2022-12-18T17:36:35.061Z,12.70
2022-12-18T17:39:10.154Z,22.92
2022-12-18T17:41:36.659Z,13.50
2022-12-18T17:44:05.664Z,12.80
2022-12-18T17:46:34.201Z,14.32
2022-12-18T17:49:02.374Z,17.00
2022-12-18T17:51:29.716Z,15.57
2022-12-18T17:53:57.718Z,18.17
2022-12-18T17:56:25.337Z,22.08
2022-12-18T17:58:52.276Z,18.27
2022-12-18T18:01:21.649Z,23.00
2022-12-18T18:03:51.747Z,17.63
2022-12-18T18:06:20.405Z,17.52
2022-12-18T18:08:47.320Z,10.57
2022-12-18T18:11:18.384Z,16.95
2022-12-18T18:13:46.879Z,17.67
2022-12-18T18:16:13.579Z,20.13
2022-12-18T18:18:40.193Z,16.90
2022-12-18T18:21:08.880Z,15.73
2022-12-18T18:23:39.109Z,19.15
2022-12-18T18:26:09.744Z,15.88
2022-12-18T18:28:38.010Z,19.23
2022-12-18T18:31:05.863Z,18.33
2022-12-18T18:33:33.416Z,20.73
2022-12-18T18:35:59.982Z,23.23
2022-12-18T18:38:29.866Z,21.92
2022-12-18T18:40:59.965Z,18.27
2022-12-18T18:43:27.593Z,19.98
2022-12-18T18:46:00.833Z,16.80
2022-12-18T18:48:41.754Z,21.85
2022-12-18T18:51:38.360Z,18.77
2022-12-18T18:54:24.727Z,17.70
2022-12-18T19:27:45.152Z,19.75
2022-12-18T19:30:14.244Z,22.08
2022-12-18T19:32:41.526Z,20.20
2022-12-18T19:35:09.024Z,19.43
2022-12-18T19:37:40.929Z,25.38
2022-12-18T19:40:12.327Z,17.38
2022-12-18T19:42:39.448Z,17.98
2022-12-18T19:45:08.939Z,21.93
2022-12-18T19:47:36.063Z,26.38
2022-12-18T19:50:02.901Z,22.73
2022-12-18T19:52:29.604Z,23.27
2022-12-18T19:54:56.213Z,26.85
2022-12-18T19:57:22.767Z,22.33
2022-12-18T19:59:49.537Z,21.35
2022-12-18T20:02:17.781Z,17.90
2022-12-18T20:04:44.643Z,21.42
2022-12-18T20:07:11.164Z,24.05
2022-12-18T20:09:39.138Z,20.30
2022-12-18T20:12:06.739Z,23.50
2022-12-18T20:14:33.425Z,18.45
2022-12-18T20:17:00.404Z,18.60
2022-12-18T20:19:28.712Z,18.73
2022-12-18T20:21:55.611Z,18.40
2022-12-18T20:24:22.134Z,36.22
2022-12-18T20:26:48.858Z,21.63
2022-12-18T20:29:16.036Z,20.48
2022-12-18T20:31:42.575Z,20.58
2022-12-18T20:34:10.059Z,22.17
2022-12-18T20:36:38.794Z,25.85
2022-12-18T20:39:07.605Z,23.00
2022-12-18T20:41:38.154Z,25.70
2022-12-18T20:44:23.271Z,22.53
2022-12-18T20:46:52.788Z,21.98
2022-12-18T20:49:19.544Z,19.55
2022-12-18T20:51:53.088Z,24.27
2022-12-18T20:54:20.119Z,19.80
2022-12-18T20:56:47.228Z,24.40
2022-12-18T20:59:14.896Z,25.27
2022-12-18T21:01:48.067Z,22.95
2022-12-18T21:04:16.042Z,22.20
2022-12-18T21:06:49.480Z,16.90
2022-12-18T21:09:20.242Z,21.35
2022-12-18T21:11:47.131Z,19.50
2022-12-18T21:14:16.705Z,25.98
2022-12-18T21:16:44.593Z,27.77
2022-12-18T21:19:11.966Z,26.92
2022-12-18T21:21:39.225Z,21.77
2022-12-18T21:24:06.959Z,29.20
2022-12-18T21:26:40.442Z,18.20
2022-12-18T21:29:15.938Z,18.20
2022-12-18T21:31:44.720Z,23.10
2022-12-18T21:34:15.737Z,21.80
2022-12-18T21:36:42.391Z,20.85
2022-12-18T21:39:10.253Z,28.95
2022-12-18T21:41:42.095Z,25.20
2022-12-18T21:44:12.253Z,20.90
2022-12-18T21:46:40.816Z,26.30
2022-12-18T21:49:09.729Z,22.05
2022-12-18T21:51:37.929Z,23.98
2022-12-18T21:54:05.103Z,20.85
2022-12-18T21:56:45.252Z,19.30
2022-12-18T21:59:14.658Z,19.95
2022-12-18T22:01:42.399Z,19.77
2022-12-18T22:04:12.162Z,25.27
2022-12-18T22:06:38.810Z,27.33
2022-12-18T22:09:05.433Z,22.77
2022-12-18T22:11:32.068Z,24.33
2022-12-18T22:14:03.352Z,24.25
2022-12-18T22:16:31.534Z,21.15
2022-12-18T22:19:00.279Z,22.50
2022-12-18T22:21:29.549Z,21.60
2022-12-18T22:23:58.032Z,21.50
2022-12-18T22:26:29.466Z,28.40
2022-12-18T22:28:58.040Z,15.40
2022-12-18T22:31:26.215Z,19.75
2022-12-18T22:33:53.041Z,23.38
2022-12-18T22:36:19.681Z,25.65
2022-12-18T22:38:51.812Z,22.43
2022-12-18T22:41:21.440Z,19.25
2022-12-18T22:43:48.336Z,23.58
2022-12-18T22:46:16.744Z,18.88
2022-12-18T22:48:44.708Z,22.63
2022-12-18T22:51:15.271Z,25.73
2022-12-18T22:53:42.139Z,24.08
2022-12-18T22:56:15.721Z,25.80
2022-12-18T22:58:49.027Z,25.55
2022-12-18T23:01:20.350Z,24.57
2022-12-18T23:03:51.476Z,26.05
2022-12-18T23:06:18.858Z,26.50
2022-12-18T23:08:46.279Z,27.02
2022-12-18T23:11:18.817Z,23.90
2022-12-18T23:13:46.468Z,22.15
2022-12-18T23:16:15.079Z,26.40
2022-12-18T23:18:42.509Z,18.65
2022-12-18T23:21:13.441Z,21.35
2022-12-18T23:23:41.376Z,24.17
2022-12-18T23:26:10.781Z,23.08
2022-12-18T23:28:40.883Z,23.85
2022-12-18T23:31:10.659Z,21.50
2022-12-18T23:33:38.506Z,19.48
2022-12-18T23:36:06.392Z,25.73
2022-12-18T23:38:40.757Z,26.50
2022-12-18T23:41:14.025Z,26.00
2022-12-18T23:43:43.946Z,25.67
2022-12-18T23:46:14.602Z,25.40
2022-12-18T23:48:42.546Z,26.83
2022-12-18T23:51:10.889Z,24.02
2022-12-18T23:53:38.951Z,22.50
2022-12-18T23:56:09.935Z,25.83
2022-12-18T23:58:38.069Z,21.67
